Artesia, New Mexico
Current Conditions -  °F | °C
As of 9:51 AM on Sunday 23 Nov 2014 (Local Time) from KROW Reporting Station
Clear Clear  
Wind Chill: 64°   Ceiling: Unl
Heat Index: 64°   Visibility: 10mi
Dew Point: 24°   Wind: 35mph
Humidity: 22%   Direction: 290°WNW
Pressure: 29.69"   Gusts: 49mph
Location:  32.84°N, 104.39°W
Report Text: KROW 231651Z 29030G43KT 10SM CLR 18/M04 A2969 RMK AO2 PK WND 28043/1651 RAB1558E04 SLP015 P0000 T01781044
Loading
Personal Weather Stations






























Interactive Weather Map New forecast layout! Learn more

10-Day Weather Forecast

Advertisements
Track Severe Weather on mobile